sensor_id;sensor_type;location;lat;lon;timestamp;temperature;humidity
29775;DHT22;16676;51.202;6.774;2023-07-02T00:02:33;22.10;71.10
29775;DHT22;16676;51.202;6.774;2023-07-02T00:06:35;22.10;72.10
29775;DHT22;16676;51.202;6.774;2023-07-02T00:10:40;22.00;70.80
29775;DHT22;16676;51.202;6.774;2023-07-02T00:14:44;22.00;71.50
29775;DHT22;16676;51.202;6.774;2023-07-02T00:18:46;22.00;71.30
29775;DHT22;16676;51.202;6.774;2023-07-02T00:22:53;22.00;71.10
29775;DHT22;16676;51.202;6.774;2023-07-02T00:26:55;22.00;71.80
29775;DHT22;16676;51.202;6.774;2023-07-02T00:30:58;21.90;71.20
29775;DHT22;16676;51.202;6.774;2023-07-02T00:35:01;21.90;71.00
29775;DHT22;16676;51.202;6.774;2023-07-02T00:39:03;21.90;71.60
29775;DHT22;16676;51.202;6.774;2023-07-02T00:43:05;21.90;70.80
29775;DHT22;16676;51.202;6.774;2023-07-02T00:47:14;21.90;70.70
29775;DHT22;16676;51.202;6.774;2023-07-02T00:51:19;21.90;70.70
29775;DHT22;16676;51.202;6.774;2023-07-02T00:55:21;21.90;70.20
29775;DHT22;16676;51.202;6.774;2023-07-02T00:59:23;21.90;69.60
29775;DHT22;16676;51.202;6.774;2023-07-02T01:03:27;21.80;68.70
29775;DHT22;16676;51.202;6.774;2023-07-02T01:07:44;21.80;69.00
29775;DHT22;16676;51.202;6.774;2023-07-02T01:11:50;21.80;68.40
29775;DHT22;16676;51.202;6.774;2023-07-02T01:15:53;21.80;68.00
29775;DHT22;16676;51.202;6.774;2023-07-02T01:19:57;21.70;66.80
29775;DHT22;16676;51.202;6.774;2023-07-02T01:24:00;21.70;67.10
29775;DHT22;16676;51.202;6.774;2023-07-02T01:28:02;21.70;67.00
29775;DHT22;16676;51.202;6.774;2023-07-02T01:32:05;21.60;66.70
29775;DHT22;16676;51.202;6.774;2023-07-02T01:36:09;21.60;66.50
29775;DHT22;16676;51.202;6.774;2023-07-02T01:40:11;21.60;67.70
29775;DHT22;16676;51.202;6.774;2023-07-02T01:44:13;21.60;66.70
29775;DHT22;16676;51.202;6.774;2023-07-02T01:48:15;21.60;66.60
29775;DHT22;16676;51.202;6.774;2023-07-02T01:52:18;21.60;66.50
29775;DHT22;16676;51.202;6.774;2023-07-02T01:56:20;21.50;66.20
29775;DHT22;16676;51.202;6.774;2023-07-02T02:00:22;21.50;66.80
29775;DHT22;16676;51.202;6.774;2023-07-02T02:04:24;21.50;66.30
29775;DHT22;16676;51.202;6.774;2023-07-02T02:08:28;21.50;66.80
29775;DHT22;16676;51.202;6.774;2023-07-02T02:12:30;21.50;66.60
29775;DHT22;16676;51.202;6.774;2023-07-02T02:16:32;21.50;66.30
29775;DHT22;16676;51.202;6.774;2023-07-02T02:20:35;21.50;66.90
29775;DHT22;16676;51.202;6.774;2023-07-02T02:24:38;21.50;66.40
29775;DHT22;16676;51.202;6.774;2023-07-02T02:28:40;21.40;65.70
29775;DHT22;16676;51.202;6.774;2023-07-02T02:32:42;21.40;66.10
29775;DHT22;16676;51.202;6.774;2023-07-02T02:36:44;21.40;66.40
29775;DHT22;16676;51.202;6.774;2023-07-02T02:40:48;21.40;65.60
29775;DHT22;16676;51.202;6.774;2023-07-02T02:44:50;21.40;66.10
29775;DHT22;16676;51.202;6.774;2023-07-02T02:48:53;21.40;65.50
29775;DHT22;16676;51.202;6.774;2023-07-02T02:52:55;21.40;65.50
29775;DHT22;16676;51.202;6.774;2023-07-02T02:56:58;21.30;65.80
29775;DHT22;16676;51.202;6.774;2023-07-02T03:01:00;21.30;65.90
29775;DHT22;16676;51.202;6.774;2023-07-02T03:05:02;21.30;65.70
29775;DHT22;16676;51.202;6.774;2023-07-02T03:09:04;21.30;65.90
29775;DHT22;16676;51.202;6.774;2023-07-02T03:13:07;21.30;66.30
29775;DHT22;16676;51.202;6.774;2023-07-02T03:17:09;21.30;65.60
29775;DHT22;16676;51.202;6.774;2023-07-02T03:21:11;21.30;65.70
29775;DHT22;16676;51.202;6.774;2023-07-02T03:25:13;21.30;66.30
29775;DHT22;16676;51.202;6.774;2023-07-02T03:29:16;21.30;66.20
29775;DHT22;16676;51.202;6.774;2023-07-02T03:33:20;21.30;66.60
29775;DHT22;16676;51.202;6.774;2023-07-02T03:37:22;21.30;66.30
29775;DHT22;16676;51.202;6.774;2023-07-02T03:41:24;21.20;65.80
29775;DHT22;16676;51.202;6.774;2023-07-02T03:45:27;21.20;66.50
29775;DHT22;16676;51.202;6.774;2023-07-02T03:49:29;21.20;65.80
29775;DHT22;16676;51.202;6.774;2023-07-02T03:53:30;21.20;66.00
29775;DHT22;16676;51.202;6.774;2023-07-02T03:57:32;21.20;66.40
29775;DHT22;16676;51.202;6.774;2023-07-02T04:01:35;21.20;66.40
29775;DHT22;16676;51.202;6.774;2023-07-02T04:05:37;21.20;66.90
29775;DHT22;16676;51.202;6.774;2023-07-02T04:09:39;21.20;67.80
29775;DHT22;16676;51.202;6.774;2023-07-02T04:13:41;21.30;67.90
29775;DHT22;16676;51.202;6.774;2023-07-02T04:17:44;21.30;66.30
29775;DHT22;16676;51.202;6.774;2023-07-02T04:21:46;21.30;66.80
29775;DHT22;16676;51.202;6.774;2023-07-02T04:25:48;21.30;66.50
29775;DHT22;16676;51.202;6.774;2023-07-02T04:29:50;21.30;66.80
29775;DHT22;16676;51.202;6.774;2023-07-02T04:33:53;21.30;66.50
29775;DHT22;16676;51.202;6.774;2023-07-02T04:37:55;21.30;66.30
29775;DHT22;16676;51.202;6.774;2023-07-02T04:41:58;21.30;67.10
29775;DHT22;16676;51.202;6.774;2023-07-02T04:46:00;21.20;66.90
29775;DHT22;16676;51.202;6.774;2023-07-02T04:50:04;21.20;66.90
29775;DHT22;16676;51.202;6.774;2023-07-02T04:54:06;21.30;66.60
29775;DHT22;16676;51.202;6.774;2023-07-02T04:58:08;21.20;67.30
29775;DHT22;16676;51.202;6.774;2023-07-02T05:02:10;21.30;67.20
29775;DHT22;16676;51.202;6.774;2023-07-02T05:06:14;21.30;67.40
29775;DHT22;16676;51.202;6.774;2023-07-02T05:10:16;21.20;67.10
29775;DHT22;16676;51.202;6.774;2023-07-02T05:14:18;21.20;67.20
29775;DHT22;16676;51.202;6.774;2023-07-02T05:18:19;21.20;66.80
29775;DHT22;16676;51.202;6.774;2023-07-02T05:22:23;21.30;66.90
29775;DHT22;16676;51.202;6.774;2023-07-02T05:26:25;21.20;67.90
29775;DHT22;16676;51.202;6.774;2023-07-02T05:30:27;21.30;67.80
29775;DHT22;16676;51.202;6.774;2023-07-02T05:34:29;21.20;67.90
29775;DHT22;16676;51.202;6.774;2023-07-02T05:38:33;21.30;67.90
29775;DHT22;16676;51.202;6.774;2023-07-02T05:42:35;21.20;67.30
29775;DHT22;16676;51.202;6.774;2023-07-02T05:46:38;21.20;68.50
29775;DHT22;16676;51.202;6.774;2023-07-02T05:50:40;21.30;67.80
29775;DHT22;16676;51.202;6.774;2023-07-02T05:54:43;21.30;67.20
29775;DHT22;16676;51.202;6.774;2023-07-02T05:58:45;21.30;67.70
29775;DHT22;16676;51.202;6.774;2023-07-02T06:02:47;21.30;67.50
29775;DHT22;16676;51.202;6.774;2023-07-02T06:06:49;21.30;67.30
29775;DHT22;16676;51.202;6.774;2023-07-02T06:10:53;21.30;67.70
29775;DHT22;16676;51.202;6.774;2023-07-02T06:14:54;21.30;67.50
29775;DHT22;16676;51.202;6.774;2023-07-02T06:18:56;21.30;67.60
29775;DHT22;16676;51.202;6.774;2023-07-02T06:22:58;21.30;68.60
29775;DHT22;16676;51.202;6.774;2023-07-02T06:27:02;21.40;67.10
29775;DHT22;16676;51.202;6.774;2023-07-02T06:31:04;21.40;68.40
29775;DHT22;16676;51.202;6.774;2023-07-02T06:35:06;21.40;66.80
29775;DHT22;16676;51.202;6.774;2023-07-02T06:39:08;21.40;67.40
29775;DHT22;16676;51.202;6.774;2023-07-02T06:43:11;21.50;67.10
29775;DHT22;16676;51.202;6.774;2023-07-02T06:47:13;21.50;66.40
29775;DHT22;16676;51.202;6.774;2023-07-02T06:51:15;21.50;66.90
29775;DHT22;16676;51.202;6.774;2023-07-02T06:55:17;21.50;66.10
29775;DHT22;16676;51.202;6.774;2023-07-02T06:59:21;21.50;67.70
29775;DHT22;16676;51.202;6.774;2023-07-02T07:03:23;21.60;66.90
29775;DHT22;16676;51.202;6.774;2023-07-02T07:07:25;21.60;65.40
29775;DHT22;16676;51.202;6.774;2023-07-02T07:11:28;21.60;67.10
29775;DHT22;16676;51.202;6.774;2023-07-02T07:15:33;21.70;65.80
29775;DHT22;16676;51.202;6.774;2023-07-02T07:19:35;21.70;64.10
29775;DHT22;16676;51.202;6.774;2023-07-02T07:23:37;21.60;63.50
29775;DHT22;16676;51.202;6.774;2023-07-02T07:27:39;21.60;65.10
29775;DHT22;16676;51.202;6.774;2023-07-02T07:31:42;21.70;63.50
29775;DHT22;16676;51.202;6.774;2023-07-02T07:35:44;21.70;65.30
29775;DHT22;16676;51.202;6.774;2023-07-02T07:39:46;21.80;64.70
29775;DHT22;16676;51.202;6.774;2023-07-02T07:43:48;21.80;62.40
29775;DHT22;16676;51.202;6.774;2023-07-02T07:47:51;21.80;61.60
29775;DHT22;16676;51.202;6.774;2023-07-02T07:51:53;21.80;62.20
29775;DHT22;16676;51.202;6.774;2023-07-02T07:55:55;21.80;65.40
29775;DHT22;16676;51.202;6.774;2023-07-02T07:59:57;21.80;61.70
29775;DHT22;16676;51.202;6.774;2023-07-02T08:04:00;21.80;60.90
29775;DHT22;16676;51.202;6.774;2023-07-02T08:08:02;21.90;61.90
29775;DHT22;16676;51.202;6.774;2023-07-02T08:12:04;21.80;60.70
29775;DHT22;16676;51.202;6.774;2023-07-02T08:16:06;21.80;60.70
29775;DHT22;16676;51.202;6.774;2023-07-02T08:20:11;21.80;59.80
29775;DHT22;16676;51.202;6.774;2023-07-02T08:24:13;21.80;60.00
29775;DHT22;16676;51.202;6.774;2023-07-02T08:28:15;21.80;60.60
29775;DHT22;16676;51.202;6.774;2023-07-02T08:32:17;21.80;60.90
29775;DHT22;16676;51.202;6.774;2023-07-02T08:36:20;21.90;61.20
29775;DHT22;16676;51.202;6.774;2023-07-02T08:40:22;21.80;61.20
29775;DHT22;16676;51.202;6.774;2023-07-02T08:44:26;21.80;60.50
29775;DHT22;16676;51.202;6.774;2023-07-02T08:48:28;21.90;63.40
29775;DHT22;16676;51.202;6.774;2023-07-02T08:52:32;21.80;60.20
29775;DHT22;16676;51.202;6.774;2023-07-02T08:56:34;21.80;59.50
29775;DHT22;16676;51.202;6.774;2023-07-02T09:00:36;21.80;59.60
29775;DHT22;16676;51.202;6.774;2023-07-02T09:04:38;21.80;60.30
29775;DHT22;16676;51.202;6.774;2023-07-02T09:08:41;21.80;60.00
29775;DHT22;16676;51.202;6.774;2023-07-02T09:12:44;21.90;61.30
29775;DHT22;16676;51.202;6.774;2023-07-02T09:16:45;21.90;60.00
29775;DHT22;16676;51.202;6.774;2023-07-02T09:20:50;21.90;64.80
29775;DHT22;16676;51.202;6.774;2023-07-02T09:24:55;21.90;60.70
29775;DHT22;16676;51.202;6.774;2023-07-02T09:29:01;21.90;60.00
29775;DHT22;16676;51.202;6.774;2023-07-02T09:33:06;21.90;63.60
29775;DHT22;16676;51.202;6.774;2023-07-02T09:37:09;21.90;59.80
29775;DHT22;16676;51.202;6.774;2023-07-02T09:41:13;21.80;59.20
29775;DHT22;16676;51.202;6.774;2023-07-02T09:45:14;21.80;59.50
29775;DHT22;16676;51.202;6.774;2023-07-02T09:49:17;21.90;59.40
29775;DHT22;16676;51.202;6.774;2023-07-02T09:53:23;21.90;59.50
29775;DHT22;16676;51.202;6.774;2023-07-02T09:57:26;21.90;59.70
29775;DHT22;16676;51.202;6.774;2023-07-02T10:01:32;21.90;60.40
29775;DHT22;16676;51.202;6.774;2023-07-02T10:05:34;21.90;59.70
29775;DHT22;16676;51.202;6.774;2023-07-02T10:09:37;22.00;59.40
29775;DHT22;16676;51.202;6.774;2023-07-02T10:13:41;21.90;60.90
29775;DHT22;16676;51.202;6.774;2023-07-02T10:17:54;21.90;59.60
29775;DHT22;16676;51.202;6.774;2023-07-02T10:22:01;22.00;60.80
29775;DHT22;16676;51.202;6.774;2023-07-02T10:26:14;22.00;61.60
29775;DHT22;16676;51.202;6.774;2023-07-02T10:30:18;22.00;61.80
29775;DHT22;16676;51.202;6.774;2023-07-02T10:34:32;22.10;61.70
29775;DHT22;16676;51.202;6.774;2023-07-02T10:38:35;22.10;64.00
29775;DHT22;16676;51.202;6.774;2023-07-02T10:42:47;22.10;60.90
29775;DHT22;16676;51.202;6.774;2023-07-02T10:46:50;22.10;61.10
29775;DHT22;16676;51.202;6.774;2023-07-02T10:50:52;22.10;59.70
29775;DHT22;16676;51.202;6.774;2023-07-02T10:54:54;22.10;59.70
29775;DHT22;16676;51.202;6.774;2023-07-02T10:58:56;22.10;60.00
29775;DHT22;16676;51.202;6.774;2023-07-02T11:03:00;22.10;59.60
29775;DHT22;16676;51.202;6.774;2023-07-02T11:07:02;22.20;59.40
29775;DHT22;16676;51.202;6.774;2023-07-02T11:11:06;22.20;57.70
29775;DHT22;16676;51.202;6.774;2023-07-02T11:15:08;22.20;56.90
29775;DHT22;16676;51.202;6.774;2023-07-02T11:19:11;22.30;59.70
29775;DHT22;16676;51.202;6.774;2023-07-02T11:23:17;22.20;55.20
29775;DHT22;16676;51.202;6.774;2023-07-02T11:27:21;22.20;56.10
29775;DHT22;16676;51.202;6.774;2023-07-02T11:31:26;22.20;55.00
29775;DHT22;16676;51.202;6.774;2023-07-02T11:35:35;22.20;54.10
29775;DHT22;16676;51.202;6.774;2023-07-02T11:39:37;22.20;53.40
29775;DHT22;16676;51.202;6.774;2023-07-02T11:43:39;22.30;53.40
29775;DHT22;16676;51.202;6.774;2023-07-02T11:47:41;22.30;57.70
29775;DHT22;16676;51.202;6.774;2023-07-02T11:51:44;22.40;54.30
29775;DHT22;16676;51.202;6.774;2023-07-02T11:55:48;22.40;52.90
29775;DHT22;16676;51.202;6.774;2023-07-02T11:59:50;22.30;51.60
29775;DHT22;16676;51.202;6.774;2023-07-02T12:03:53;22.40;53.90
29775;DHT22;16676;51.202;6.774;2023-07-02T12:07:56;22.40;53.80
29775;DHT22;16676;51.202;6.774;2023-07-02T12:11:58;22.40;52.30
29775;DHT22;16676;51.202;6.774;2023-07-02T12:16:01;22.40;55.70
29775;DHT22;16676;51.202;6.774;2023-07-02T12:20:03;22.40;52.30
29775;DHT22;16676;51.202;6.774;2023-07-02T12:24:07;22.40;51.10
29775;DHT22;16676;51.202;6.774;2023-07-02T12:28:10;22.40;50.40
29775;DHT22;16676;51.202;6.774;2023-07-02T12:32:12;22.50;51.80
29775;DHT22;16676;51.202;6.774;2023-07-02T12:36:14;22.50;53.80
29775;DHT22;16676;51.202;6.774;2023-07-02T12:40:18;22.50;49.70
29775;DHT22;16676;51.202;6.774;2023-07-02T12:44:20;22.50;50.20
29775;DHT22;16676;51.202;6.774;2023-07-02T12:48:22;22.50;49.60
29775;DHT22;16676;51.202;6.774;2023-07-02T12:52:24;22.50;50.40
29775;DHT22;16676;51.202;6.774;2023-07-02T12:56:27;22.50;50.50
29775;DHT22;16676;51.202;6.774;2023-07-02T13:00:29;22.60;51.20
29775;DHT22;16676;51.202;6.774;2023-07-02T13:04:30;22.60;50.20
29775;DHT22;16676;51.202;6.774;2023-07-02T13:08:32;22.70;52.20
29775;DHT22;16676;51.202;6.774;2023-07-02T13:12:35;22.70;48.60
29775;DHT22;16676;51.202;6.774;2023-07-02T13:16:37;22.70;49.70
29775;DHT22;16676;51.202;6.774;2023-07-02T13:20:39;22.60;49.10
29775;DHT22;16676;51.202;6.774;2023-07-02T13:24:41;22.70;52.60
29775;DHT22;16676;51.202;6.774;2023-07-02T13:28:45;22.70;51.10
29775;DHT22;16676;51.202;6.774;2023-07-02T13:32:48;22.70;48.50
29775;DHT22;16676;51.202;6.774;2023-07-02T13:36:50;22.70;48.00
29775;DHT22;16676;51.202;6.774;2023-07-02T13:40:52;22.70;48.10
29775;DHT22;16676;51.202;6.774;2023-07-02T13:44:55;22.70;48.90
29775;DHT22;16676;51.202;6.774;2023-07-02T13:48:57;22.70;48.20
29775;DHT22;16676;51.202;6.774;2023-07-02T13:52:59;22.80;50.40
29775;DHT22;16676;51.202;6.774;2023-07-02T13:57:02;22.80;49.00
29775;DHT22;16676;51.202;6.774;2023-07-02T14:01:06;22.80;49.90
29775;DHT22;16676;51.202;6.774;2023-07-02T14:05:08;22.80;49.50
29775;DHT22;16676;51.202;6.774;2023-07-02T14:09:10;22.80;49.50
29775;DHT22;16676;51.202;6.774;2023-07-02T14:13:13;22.90;50.60
29775;DHT22;16676;51.202;6.774;2023-07-02T14:17:17;22.90;49.50
29775;DHT22;16676;51.202;6.774;2023-07-02T14:21:19;22.90;49.60
29775;DHT22;16676;51.202;6.774;2023-07-02T14:25:20;23.00;49.80
29775;DHT22;16676;51.202;6.774;2023-07-02T14:29:22;23.00;49.80
29775;DHT22;16676;51.202;6.774;2023-07-02T14:33:27;23.00;49.20
29775;DHT22;16676;51.202;6.774;2023-07-02T14:37:29;23.00;49.90
29775;DHT22;16676;51.202;6.774;2023-07-02T14:41:31;23.00;49.30
29775;DHT22;16676;51.202;6.774;2023-07-02T14:45:37;23.10;49.90
29775;DHT22;16676;51.202;6.774;2023-07-02T14:49:44;23.10;49.30
29775;DHT22;16676;51.202;6.774;2023-07-02T14:53:46;23.10;49.30
29775;DHT22;16676;51.202;6.774;2023-07-02T14:57:48;23.10;49.10
29775;DHT22;16676;51.202;6.774;2023-07-02T15:01:49;23.10;49.00
29775;DHT22;16676;51.202;6.774;2023-07-02T15:05:53;23.10;49.00
29775;DHT22;16676;51.202;6.774;2023-07-02T15:09:55;23.20;48.60
29775;DHT22;16676;51.202;6.774;2023-07-02T15:13:57;23.20;49.40
29775;DHT22;16676;51.202;6.774;2023-07-02T15:18:00;23.20;50.90
29775;DHT22;16676;51.202;6.774;2023-07-02T15:22:03;23.20;47.90
29775;DHT22;16676;51.202;6.774;2023-07-02T15:26:06;23.10;47.50
29775;DHT22;16676;51.202;6.774;2023-07-02T15:30:08;23.20;48.70
29775;DHT22;16676;51.202;6.774;2023-07-02T15:34:10;23.20;47.30
29775;DHT22;16676;51.202;6.774;2023-07-02T15:38:16;23.20;47.60
29775;DHT22;16676;51.202;6.774;2023-07-02T15:42:18;23.20;47.80
29775;DHT22;16676;51.202;6.774;2023-07-02T15:46:20;23.20;48.50
29775;DHT22;16676;51.202;6.774;2023-07-02T15:50:22;23.20;49.60
29775;DHT22;16676;51.202;6.774;2023-07-02T15:54:26;23.30;49.10
29775;DHT22;16676;51.202;6.774;2023-07-02T15:58:30;23.30;50.40
29775;DHT22;16676;51.202;6.774;2023-07-02T16:02:32;23.30;51.30
29775;DHT22;16676;51.202;6.774;2023-07-02T16:06:34;23.30;51.30
29775;DHT22;16676;51.202;6.774;2023-07-02T16:10:41;23.20;47.80
29775;DHT22;16676;51.202;6.774;2023-07-02T16:14:43;23.30;47.60
29775;DHT22;16676;51.202;6.774;2023-07-02T16:18:46;23.20;47.20
29775;DHT22;16676;51.202;6.774;2023-07-02T16:22:47;23.30;50.00
29775;DHT22;16676;51.202;6.774;2023-07-02T16:26:52;23.30;50.80
29775;DHT22;16676;51.202;6.774;2023-07-02T16:30:55;23.30;49.90
29775;DHT22;16676;51.202;6.774;2023-07-02T16:34:57;23.30;48.30
29775;DHT22;16676;51.202;6.774;2023-07-02T16:38:59;23.30;48.40
29775;DHT22;16676;51.202;6.774;2023-07-02T16:43:02;23.30;48.60
29775;DHT22;16676;51.202;6.774;2023-07-02T16:47:05;23.30;48.50
29775;DHT22;16676;51.202;6.774;2023-07-02T16:51:07;23.30;49.40
29775;DHT22;16676;51.202;6.774;2023-07-02T16:55:09;23.30;49.30
29775;DHT22;16676;51.202;6.774;2023-07-02T16:59:15;23.30;48.80
29775;DHT22;16676;51.202;6.774;2023-07-02T17:03:17;23.30;48.20
29775;DHT22;16676;51.202;6.774;2023-07-02T17:07:19;23.30;48.60
29775;DHT22;16676;51.202;6.774;2023-07-02T17:11:21;23.30;52.40
29775;DHT22;16676;51.202;6.774;2023-07-02T17:15:24;23.30;50.20
29775;DHT22;16676;51.202;6.774;2023-07-02T17:19:28;23.30;49.90
29775;DHT22;16676;51.202;6.774;2023-07-02T17:23:30;23.30;49.10
29775;DHT22;16676;51.202;6.774;2023-07-02T17:27:32;23.30;50.30
29775;DHT22;16676;51.202;6.774;2023-07-02T17:31:35;23.40;50.30
29775;DHT22;16676;51.202;6.774;2023-07-02T17:35:38;23.40;52.30
29775;DHT22;16676;51.202;6.774;2023-07-02T17:39:40;23.30;50.60
29775;DHT22;16676;51.202;6.774;2023-07-02T17:43:42;23.40;50.30
29775;DHT22;16676;51.202;6.774;2023-07-02T17:47:46;23.30;51.20
29775;DHT22;16676;51.202;6.774;2023-07-02T17:51:48;23.30;51.10
29775;DHT22;16676;51.202;6.774;2023-07-02T17:55:50;23.30;49.10
29775;DHT22;16676;51.202;6.774;2023-07-02T17:59:52;23.30;52.70
29775;DHT22;16676;51.202;6.774;2023-07-02T18:03:57;23.30;52.10
29775;DHT22;16676;51.202;6.774;2023-07-02T18:07:59;23.30;50.90
29775;DHT22;16676;51.202;6.774;2023-07-02T18:12:01;23.30;50.90
29775;DHT22;16676;51.202;6.774;2023-07-02T18:16:03;23.30;50.40
29775;DHT22;16676;51.202;6.774;2023-07-02T18:20:08;23.30;51.10
29775;DHT22;16676;51.202;6.774;2023-07-02T18:24:10;23.30;52.30
29775;DHT22;16676;51.202;6.774;2023-07-02T18:28:13;23.30;50.90
29775;DHT22;16676;51.202;6.774;2023-07-02T18:32:15;23.30;50.90
29775;DHT22;16676;51.202;6.774;2023-07-02T18:36:19;23.30;51.40
29775;DHT22;16676;51.202;6.774;2023-07-02T18:40:21;23.30;51.20
29775;DHT22;16676;51.202;6.774;2023-07-02T18:44:23;23.40;52.40
29775;DHT22;16676;51.202;6.774;2023-07-02T18:48:28;23.30;51.90
29775;DHT22;16676;51.202;6.774;2023-07-02T18:52:31;23.30;50.70
29775;DHT22;16676;51.202;6.774;2023-07-02T18:56:33;23.30;51.20
29775;DHT22;16676;51.202;6.774;2023-07-02T19:00:35;23.30;53.20
29775;DHT22;16676;51.202;6.774;2023-07-02T19:04:37;23.30;53.00
29775;DHT22;16676;51.202;6.774;2023-07-02T19:08:40;23.30;53.20
29775;DHT22;16676;51.202;6.774;2023-07-02T19:12:45;23.30;52.80
29775;DHT22;16676;51.202;6.774;2023-07-02T19:16:47;23.30;53.10
29775;DHT22;16676;51.202;6.774;2023-07-02T19:20:49;23.30;53.20
29775;DHT22;16676;51.202;6.774;2023-07-02T19:24:56;23.30;53.70
29775;DHT22;16676;51.202;6.774;2023-07-02T19:28:58;23.30;52.90
29775;DHT22;16676;51.202;6.774;2023-07-02T19:32:59;23.30;52.70
29775;DHT22;16676;51.202;6.774;2023-07-02T19:37:02;23.30;53.40
29775;DHT22;16676;51.202;6.774;2023-07-02T19:41:05;23.20;52.60
29775;DHT22;16676;51.202;6.774;2023-07-02T19:45:08;23.20;54.00
29775;DHT22;16676;51.202;6.774;2023-07-02T19:49:10;23.20;52.70
29775;DHT22;16676;51.202;6.774;2023-07-02T19:53:12;23.20;54.20
29775;DHT22;16676;51.202;6.774;2023-07-02T19:57:18;23.20;52.70
29775;DHT22;16676;51.202;6.774;2023-07-02T20:01:19;23.20;53.50
29775;DHT22;16676;51.202;6.774;2023-07-02T20:05:22;23.10;54.30
29775;DHT22;16676;51.202;6.774;2023-07-02T20:09:24;23.10;57.40
29775;DHT22;16676;51.202;6.774;2023-07-02T20:13:28;23.10;56.30
29775;DHT22;16676;51.202;6.774;2023-07-02T20:17:30;23.10;58.10
29775;DHT22;16676;51.202;6.774;2023-07-02T20:21:31;23.20;58.00
29775;DHT22;16676;51.202;6.774;2023-07-02T20:25:36;23.20;57.40
29775;DHT22;16676;51.202;6.774;2023-07-02T20:29:39;23.10;57.10
29775;DHT22;16676;51.202;6.774;2023-07-02T20:33:41;23.10;56.00
29775;DHT22;16676;51.202;6.774;2023-07-02T20:37:43;23.20;58.30
29775;DHT22;16676;51.202;6.774;2023-07-02T20:41:50;23.20;59.10
29775;DHT22;16676;51.202;6.774;2023-07-02T20:45:56;23.10;57.80
29775;DHT22;16676;51.202;6.774;2023-07-02T20:50:01;23.20;54.80
29775;DHT22;16676;51.202;6.774;2023-07-02T20:54:04;23.10;56.30
29775;DHT22;16676;51.202;6.774;2023-07-02T20:58:06;23.10;55.00
29775;DHT22;16676;51.202;6.774;2023-07-02T21:02:09;23.10;57.40
29775;DHT22;16676;51.202;6.774;2023-07-02T21:06:11;23.20;57.50
29775;DHT22;16676;51.202;6.774;2023-07-02T21:10:13;23.10;56.50
29775;DHT22;16676;51.202;6.774;2023-07-02T21:14:15;23.10;55.30
29775;DHT22;16676;51.202;6.774;2023-07-02T21:18:18;23.10;56.00
29775;DHT22;16676;51.202;6.774;2023-07-02T21:22:20;23.10;55.70
29775;DHT22;16676;51.202;6.774;2023-07-02T21:26:24;23.10;55.10
29775;DHT22;16676;51.202;6.774;2023-07-02T21:30:26;23.10;54.40
29775;DHT22;16676;51.202;6.774;2023-07-02T21:34:29;23.10;57.70
29775;DHT22;16676;51.202;6.774;2023-07-02T21:38:31;23.10;57.00
29775;DHT22;16676;51.202;6.774;2023-07-02T21:42:33;23.10;55.90
29775;DHT22;16676;51.202;6.774;2023-07-02T21:46:35;23.10;54.20
29775;DHT22;16676;51.202;6.774;2023-07-02T21:50:38;23.10;53.60
29775;DHT22;16676;51.202;6.774;2023-07-02T21:54:40;23.10;55.10
29775;DHT22;16676;51.202;6.774;2023-07-02T21:58:42;23.10;55.50
29775;DHT22;16676;51.202;6.774;2023-07-02T22:02:44;23.10;54.00
29775;DHT22;16676;51.202;6.774;2023-07-02T22:06:47;23.10;55.30
29775;DHT22;16676;51.202;6.774;2023-07-02T22:10:50;23.10;54.60
29775;DHT22;16676;51.202;6.774;2023-07-02T22:14:52;23.00;53.30
29775;DHT22;16676;51.202;6.774;2023-07-02T22:18:56;23.00;50.40
29775;DHT22;16676;51.202;6.774;2023-07-02T22:23:00;23.00;51.80
29775;DHT22;16676;51.202;6.774;2023-07-02T22:27:03;23.00;53.20
29775;DHT22;16676;51.202;6.774;2023-07-02T22:31:05;23.00;54.10
29775;DHT22;16676;51.202;6.774;2023-07-02T22:35:07;23.00;51.10
29775;DHT22;16676;51.202;6.774;2023-07-02T22:39:11;23.00;53.40
29775;DHT22;16676;51.202;6.774;2023-07-02T22:43:13;23.00;51.10
29775;DHT22;16676;51.202;6.774;2023-07-02T22:47:16;23.00;52.40
29775;DHT22;16676;51.202;6.774;2023-07-02T22:51:18;23.00;51.70
29775;DHT22;16676;51.202;6.774;2023-07-02T22:55:21;22.90;53.00
29775;DHT22;16676;51.202;6.774;2023-07-02T22:59:24;22.90;50.60
29775;DHT22;16676;51.202;6.774;2023-07-02T23:03:26;22.90;53.60
29775;DHT22;16676;51.202;6.774;2023-07-02T23:07:28;22.90;50.30
29775;DHT22;16676;51.202;6.774;2023-07-02T23:11:31;22.90;50.60
29775;DHT22;16676;51.202;6.774;2023-07-02T23:15:33;22.80;51.90
29775;DHT22;16676;51.202;6.774;2023-07-02T23:19:35;22.90;51.40
29775;DHT22;16676;51.202;6.774;2023-07-02T23:23:37;22.90;50.90
29775;DHT22;16676;51.202;6.774;2023-07-02T23:27:44;22.90;52.30
29775;DHT22;16676;51.202;6.774;2023-07-02T23:31:48;22.80;52.00
29775;DHT22;16676;51.202;6.774;2023-07-02T23:35:50;22.80;53.10
29775;DHT22;16676;51.202;6.774;2023-07-02T23:39:59;22.80;50.40
29775;DHT22;16676;51.202;6.774;2023-07-02T23:44:02;22.80;51.60
29775;DHT22;16676;51.202;6.774;2023-07-02T23:48:04;22.80;50.00
29775;DHT22;16676;51.202;6.774;2023-07-02T23:52:07;22.80;50.10
29775;DHT22;16676;51.202;6.774;2023-07-02T23:56:09;22.80;50.40
